Time;durP1;ratioP1;P1;durP2;ratioP2;P2;SDS_P1;SDS_P2;PMS_P1;PMS_P2;Temp;Humidity;BMP_temperature;BMP_pressure;BME280_temperature;BME280_humidity;BME280_pressure;Samples;Min_cycle;Max_cycle;Signal;HPM_P1;HPM_P2
2023/12/13 00:01:34;;;;;;;18.75;10.50;;;6.10;1.00;;;;;;5193470;28;20216;-40
2023/12/13 00:04:05;;;;;;;18.87;10.27;;;6.00;1.00;;;;;;5196236;28;20401;-43
2023/12/13 00:06:37;;;;;;;17.50;9.95;;;6.00;1.00;;;;;;5197568;28;20025;-44
2023/12/13 00:09:12;;;;;;;14.38;9.48;;;6.00;1.00;;;;;;5195943;28;20044;-43
2023/12/13 00:11:43;;;;;;;15.82;10.63;;;6.10;1.00;;;;;;5173991;28;20251;-44
2023/12/13 00:14:18;;;;;;;18.27;11.05;;;6.10;1.00;;;;;;5195819;28;20044;-44
2023/12/13 00:16:51;;;;;;;19.17;10.60;;;6.00;1.00;;;;;;5194394;28;20218;-45
2023/12/13 00:19:28;;;;;;;17.60;10.32;;;6.00;1.00;;;;;;5196828;28;20045;-45
2023/12/13 00:21:59;;;;;;;16.98;10.45;;;6.10;1.00;;;;;;5202054;28;20329;-45
2023/12/13 00:24:31;;;;;;;23.70;10.02;;;6.00;1.00;;;;;;5183837;28;20045;-48
2023/12/13 00:27:03;;;;;;;17.75;9.98;;;6.10;1.00;;;;;;5195847;28;20325;-47
2023/12/13 00:29:37;;;;;;;21.83;10.40;;;6.00;1.00;;;;;;5194166;28;20221;-48
2023/12/13 00:32:10;;;;;;;16.92;11.05;;;6.10;1.00;;;;;;5157971;28;20349;-48
2023/12/13 00:34:41;;;;;;;17.98;11.20;;;6.00;1.00;;;;;;5179740;28;20055;-48
2023/12/13 00:37:12;;;;;;;18.00;10.77;;;5.90;1.00;;;;;;5196713;28;20037;-51
2023/12/13 00:39:43;;;;;;;16.40;10.02;;;5.90;1.00;;;;;;5191801;28;20048;-51
2023/12/13 00:42:17;;;;;;;18.00;10.35;;;5.70;1.00;;;;;;5189058;28;20025;-51
2023/12/13 00:44:51;;;;;;;18.30;10.23;;;5.70;1.00;;;;;;5196891;28;20030;-51
2023/12/13 00:47:22;;;;;;;19.40;12.45;;;5.70;1.00;;;;;;5193576;28;20033;-51
2023/12/13 00:49:56;;;;;;;21.00;11.35;;;5.70;1.00;;;;;;5174515;28;20348;-52
2023/12/13 00:52:27;;;;;;;16.48;9.85;;;5.70;1.00;;;;;;5193039;28;20282;-53
2023/12/13 00:55:04;;;;;;;13.80;9.52;;;5.70;1.00;;;;;;5193232;28;20030;-54
2023/12/13 00:57:35;;;;;;;15.30;9.65;;;5.60;1.00;;;;;;5191333;28;20048;-50
2023/12/13 01:00:09;;;;;;;15.65;9.50;;;5.70;1.00;;;;;;5192365;28;20380;-50
2023/12/13 01:02:40;;;;;;;26.08;12.05;;;5.70;1.00;;;;;;5196191;28;20037;-53
2023/12/13 01:05:12;;;;;;;19.55;10.13;;;5.70;1.00;;;;;;5190960;28;20420;-51
2023/12/13 01:07:45;;;;;;;19.55;10.35;;;5.70;1.00;;;;;;5195228;28;20056;-52
2023/12/13 01:10:20;;;;;;;20.58;11.25;;;5.70;1.00;;;;;;5194994;28;20033;-52
2023/12/13 01:12:53;;;;;;;;;;;5.70;1.00;;;;;;5195069;28;20275;-52
2023/12/13 01:15:24;;;;;;;17.23;10.18;;;5.70;1.00;;;;;;5202432;28;20259;-50
2023/12/13 01:17:55;;;;;;;16.75;10.55;;;5.70;1.00;;;;;;5188165;28;20292;-50
2023/12/13 01:20:26;;;;;;;19.20;11.27;;;5.70;1.00;;;;;;5187282;28;20204;-50
2023/12/13 01:23:00;;;;;;;22.13;10.77;;;5.60;1.00;;;;;;5228313;28;20041;-50
2023/12/13 01:25:32;;;;;;;17.48;11.30;;;5.70;1.00;;;;;;5195319;28;20029;-51
2023/12/13 01:28:03;;;;;;;21.98;12.82;;;5.70;1.00;;;;;;5193221;28;20025;-50
2023/12/13 01:30:34;;;;;;;23.35;12.18;;;5.70;1.00;;;;;;5190733;28;20521;-50
2023/12/13 01:33:08;;;;;;;20.52;11.93;;;5.80;1.00;;;;;;5194179;28;20341;-50
2023/12/13 01:35:39;;;;;;;19.48;13.60;;;5.80;1.00;;;;;;5194608;28;20033;-49
2023/12/13 01:38:10;;;;;;;20.45;12.90;;;5.80;1.00;;;;;;5208253;28;20052;-50
2023/12/13 01:40:52;;;;;;;17.13;10.70;;;5.80;1.00;;;;;;5195595;28;20096;-49
2023/12/13 01:43:26;;;;;;;22.10;12.77;;;5.90;1.00;;;;;;5170574;28;20338;-49
2023/12/13 01:45:58;;;;;;;20.90;12.70;;;5.90;1.00;;;;;;5202282;28;20041;-49
2023/12/13 01:48:30;;;;;;;19.83;12.80;;;6.00;1.00;;;;;;5194071;28;20037;-49
2023/12/13 01:51:02;;;;;;;22.70;12.20;;;6.00;1.00;;;;;;5212956;28;20214;-49
2023/12/13 01:53:34;;;;;;;21.77;11.98;;;5.90;1.00;;;;;;5195717;28;20029;-49
2023/12/13 01:56:10;;;;;;;21.23;12.57;;;5.90;1.00;;;;;;5194931;28;20269;-51
2023/12/13 01:58:41;;;;;;;19.70;12.05;;;5.80;1.00;;;;;;5191333;28;20483;-51
2023/12/13 02:01:12;;;;;;;19.92;11.98;;;5.70;1.00;;;;;;5185330;28;20048;-51
2023/12/13 02:03:52;;;;;;;21.10;13.80;;;5.60;1.00;;;;;;5192116;28;20059;-50
2023/12/13 02:06:23;;;;;;;23.35;13.13;;;5.70;1.00;;;;;;5191847;28;20037;-50
2023/12/13 02:08:57;;;;;;;19.42;13.10;;;5.80;1.00;;;;;;5193411;28;20040;-51
2023/12/13 02:11:31;;;;;;;19.25;11.40;;;5.90;1.00;;;;;;5178843;28;20288;-50
2023/12/13 02:14:05;;;;;;;19.25;13.00;;;5.80;1.00;;;;;;5186354;28;20029;-50
2023/12/13 02:16:39;;;;;;;21.52;12.77;;;5.80;1.00;;;;;;5195824;28;20025;-50
2023/12/13 02:19:10;;;;;;;24.17;12.93;;;5.80;1.00;;;;;;5195025;28;20043;-50
2023/12/13 02:21:42;;;;;;;20.88;12.32;;;5.70;1.00;;;;;;5207120;28;20058;-50
2023/12/13 02:24:13;;;;;;;21.60;13.13;;;5.70;1.00;;;;;;5208923;28;20033;-50
2023/12/13 02:26:50;;;;;;;19.02;11.43;;;5.60;1.00;;;;;;5198579;28;20033;-50
2023/12/13 02:29:21;;;;;;;20.23;11.80;;;5.50;1.00;;;;;;5199469;28;20336;-50
2023/12/13 02:31:56;;;;;;;20.75;12.68;;;5.50;1.00;;;;;;5188727;28;20045;-49
2023/12/13 02:34:27;;;;;;;23.58;11.82;;;5.50;1.00;;;;;;5207320;28;20029;-49
2023/12/13 02:36:58;;;;;;;23.42;12.65;;;5.50;1.00;;;;;;5197066;28;20035;-49
2023/12/13 02:39:32;;;;;;;19.90;12.25;;;5.50;1.00;;;;;;5199096;28;20029;-49
2023/12/13 02:42:04;;;;;;;19.10;11.90;;;5.60;1.00;;;;;;5198501;28;20251;-49
2023/12/13 02:44:35;;;;;;;19.23;12.35;;;5.50;1.00;;;;;;5196551;28;20048;-49
2023/12/13 02:47:07;;;;;;;19.05;11.18;;;5.50;1.00;;;;;;5196355;28;20033;-49
2023/12/13 02:49:41;;;;;;;21.60;12.13;;;5.60;1.00;;;;;;5198588;28;20039;-49
2023/12/13 02:52:17;;;;;;;21.95;13.20;;;5.60;1.00;;;;;;5213640;28;20330;-49
2023/12/13 02:54:49;;;;;;;21.02;12.88;;;5.40;1.00;;;;;;5195733;28;20112;-50
2023/12/13 02:57:20;;;;;;;20.10;12.32;;;5.40;1.00;;;;;;5195674;28;20033;-49
2023/12/13 02:59:51;;;;;;;22.92;12.57;;;5.40;1.00;;;;;;5196354;28;20081;-50
2023/12/13 03:02:26;;;;;;;21.80;13.68;;;5.40;1.00;;;;;;5189666;28;20053;-49
2023/12/13 03:05:03;;;;;;;20.65;12.30;;;5.50;1.00;;;;;;5187751;28;20117;-49
2023/12/13 03:07:34;;;;;;;23.17;13.38;;;5.50;6.10;;;;;;5185418;28;20025;-49
2023/12/13 03:10:05;;;;;;;23.80;13.98;;;5.60;12.20;;;;;;5193890;28;20033;-49
2023/12/13 03:12:39;;;;;;;21.48;12.85;;;5.60;14.50;;;;;;5189013;28;20265;-49
2023/12/13 03:15:11;;;;;;;24.95;14.02;;;5.70;21.40;;;;;;5200766;28;20036;-49
2023/12/13 03:17:42;;;;;;;29.25;13.93;;;5.70;25.00;;;;;;5177272;28;20367;-50
2023/12/13 03:20:18;;;;;;;22.20;12.63;;;5.80;29.00;;;;;;5190710;28;20565;-50
2023/12/13 03:22:49;;;;;;;28.33;13.88;;;5.80;30.70;;;;;;5201006;28;20037;-50
2023/12/13 03:25:21;;;;;;;26.02;14.10;;;5.80;30.00;;;;;;5194192;28;20037;-50
2023/12/13 03:27:55;;;;;;;24.05;13.25;;;5.80;31.80;;;;;;5187120;28;20512;-50
2023/12/13 03:30:26;;;;;;;20.42;12.82;;;5.80;29.10;;;;;;5192691;28;20192;-50
2023/12/13 03:32:59;;;;;;;21.33;12.13;;;5.80;28.10;;;;;;5197728;28;20223;-50
2023/12/13 03:35:35;;;;;;;23.43;11.60;;;5.80;31.40;;;;;;5197136;28;20044;-50
2023/12/13 03:38:08;;;;;;;21.92;11.20;;;5.70;25.00;;;;;;5198196;28;20286;-49
2023/12/13 03:40:39;;;;;;;21.20;12.45;;;5.70;21.50;;;;;;5208911;28;20060;-51
2023/12/13 03:43:10;;;;;;;23.40;13.15;;;5.60;23.90;;;;;;5194927;28;20060;-50
2023/12/13 03:45:47;;;;;;;21.88;12.52;;;5.70;29.20;;;;;;5193196;28;20225;-50
2023/12/13 03:48:18;;;;;;;17.77;10.93;;;5.80;32.70;;;;;;5197576;28;20333;-50
2023/12/13 03:50:53;;;;;;;19.40;11.52;;;5.80;36.00;;;;;;5197025;28;20026;-50
2023/12/13 03:53:33;;;;;;;17.63;10.55;;;5.80;31.40;;;;;;5196973;28;20018;-50
2023/12/13 03:56:04;;;;;;;21.55;12.13;;;5.80;31.60;;;;;;5199664;28;20256;-50
2023/12/13 03:58:39;;;;;;;26.02;13.27;;;5.80;27.30;;;;;;5196070;28;20029;-50
2023/12/13 04:01:11;;;;;;;20.70;12.93;;;5.80;33.80;;;;;;5181328;28;20063;-49
2023/12/13 04:03:42;;;;;;;20.40;11.70;;;5.90;31.60;;;;;;5196305;28;20033;-50
2023/12/13 04:06:16;;;;;;;25.10;12.27;;;5.80;26.60;;;;;;5196496;28;20035;-49
2023/12/13 04:08:49;;;;;;;18.23;12.25;;;5.80;20.90;;;;;;5192321;28;20390;-49
2023/12/13 04:11:20;;;;;;;21.70;13.02;;;5.80;24.60;;;;;;5197919;28;20242;-50
2023/12/13 04:13:52;;;;;;;21.33;13.82;;;5.80;24.40;;;;;;5197076;28;20063;-50
2023/12/13 04:16:23;;;;;;;26.63;13.27;;;5.80;22.60;;;;;;5175328;28;20273;-50
2023/12/13 04:18:57;;;;;;;20.48;13.57;;;5.70;15.70;;;;;;5196848;28;20027;-50
2023/12/13 04:21:31;;;;;;;18.90;12.70;;;5.70;14.60;;;;;;5197373;28;20039;-48
2023/12/13 04:24:07;;;;;;;23.20;13.98;;;5.70;23.10;;;;;;5200885;28;20052;-51
2023/12/13 04:26:42;;;;;;;19.55;12.25;;;5.70;22.40;;;;;;5196728;28;20022;-48
2023/12/13 04:29:16;;;;;;;23.83;12.95;;;5.60;21.10;;;;;;5177319;28;20334;-48
2023/12/13 04:31:49;;;;;;;22.13;13.10;;;5.70;27.80;;;;;;5181038;28;20112;-51
2023/12/13 04:34:26;;;;;;;19.35;11.77;;;5.70;31.00;;;;;;5196419;28;20037;-48
2023/12/13 04:37:00;;;;;;;21.98;13.30;;;5.70;25.50;;;;;;5197517;28;20336;-48
2023/12/13 04:39:32;;;;;;;;;;;5.60;22.80;;;;;;5178573;28;20026;-48
2023/12/13 04:42:03;;;;;;;26.70;14.02;;;5.60;18.50;;;;;;5193646;28;19913;-58
2023/12/13 04:44:34;;;;;;;26.23;14.43;;;5.60;24.80;;;;;;5196455;28;20351;-50
2023/12/13 04:47:08;;;;;;;24.23;14.23;;;5.60;26.10;;;;;;5193753;28;20021;-48
2023/12/13 04:49:39;;;;;;;;;;;5.50;16.50;;;;;;5195538;28;20558;-48
2023/12/13 04:52:11;;;;;;;21.35;12.57;;;5.50;21.90;;;;;;5196155;28;19909;-48
2023/12/13 04:54:42;;;;;;;18.70;11.73;;;5.50;18.20;;;;;;5196028;28;20061;-48
2023/12/13 04:57:14;;;;;;;24.38;13.15;;;5.50;25.10;;;;;;5191981;28;20225;-48
2023/12/13 04:59:48;;;;;;;27.42;14.88;;;5.60;30.70;;;;;;5189257;28;20040;-48
2023/12/13 05:02:20;;;;;;;21.88;13.40;;;5.60;32.50;;;;;;5193414;28;20045;-48
2023/12/13 05:04:53;;;;;;;23.50;14.15;;;5.60;29.20;;;;;;5178399;28;20033;-48
2023/12/13 05:07:27;;;;;;;19.50;12.10;;;5.60;24.00;;;;;;5196691;28;20315;-51
2023/12/13 05:09:59;;;;;;;;;;;5.50;22.90;;;;;;5161603;28;20046;-47
2023/12/13 05:12:30;;;;;;;19.70;12.40;;;5.50;20.70;;;;;;5183496;28;20332;-49
2023/12/13 05:15:12;;;;;;;25.50;12.90;;;5.50;27.20;;;;;;5184826;28;20039;-50
2023/12/13 05:17:44;;;;;;;25.02;13.02;;;5.50;25.30;;;;;;5197340;28;20043;-49
2023/12/13 05:20:18;;;;;;;20.63;13.05;;;5.40;22.00;;;;;;5196830;28;20022;-51
2023/12/13 05:22:53;;;;;;;24.58;14.15;;;5.40;23.10;;;;;;5210701;28;20063;-51
2023/12/13 05:25:33;;;;;;;21.10;12.52;;;5.50;29.00;;;;;;5210033;28;20066;-51
2023/12/13 05:28:04;;;;;;;25.95;14.23;;;5.50;30.10;;;;;;5171849;28;20037;-50
2023/12/13 05:30:41;;;;;;;21.30;13.27;;;5.60;29.80;;;;;;5184241;28;20033;-50
2023/12/13 05:33:15;;;;;;;28.33;14.80;;;5.60;30.00;;;;;;5193480;28;20259;-50
2023/12/13 05:35:46;;;;;;;25.42;14.32;;;5.60;27.90;;;;;;5188479;28;20037;-50
2023/12/13 05:38:20;;;;;;;23.13;15.27;;;5.60;27.10;;;;;;5193886;28;20323;-50
2023/12/13 05:40:54;;;;;;;25.95;15.48;;;5.60;29.70;;;;;;5194533;28;20033;-51
2023/12/13 05:43:26;;;;;;;26.88;16.30;;;5.50;6.90;;;;;;5195204;28;20037;-51
2023/12/13 05:45:59;;;;;;;26.67;15.13;;;5.40;12.30;;;;;;5191963;28;20039;-51
2023/12/13 05:48:33;;;;;;;26.75;15.85;;;5.40;11.90;;;;;;5166761;28;20064;-50
2023/12/13 05:51:07;;;;;;;24.63;16.45;;;5.40;16.10;;;;;;5199068;28;20036;-51
2023/12/13 05:53:39;;;;;;;24.55;16.58;;;5.40;2.80;;;;;;5196535;28;20237;-51
2023/12/13 05:56:11;;;;;;;30.88;15.95;;;5.30;2.30;;;;;;5185482;28;20324;-51
2023/12/13 05:58:44;;;;;;;28.70;17.10;;;5.30;6.90;;;;;;5193375;28;20048;-50
2023/12/13 06:01:15;;;;;;;34.20;17.00;;;5.30;19.40;;;;;;5196451;28;20045;-51
2023/12/13 06:03:47;;;;;;;29.77;16.95;;;5.40;21.30;;;;;;5202950;28;20037;-50
2023/12/13 06:06:19;;;;;;;29.77;15.68;;;5.40;22.90;;;;;;5204221;28;20369;-50
2023/12/13 06:08:50;;;;;;;27.63;16.20;;;5.40;28.30;;;;;;5192134;28;20031;-51
2023/12/13 06:11:21;;;;;;;31.17;16.25;;;5.50;30.70;;;;;;5178220;28;20033;-49
2023/12/13 06:13:52;;;;;;;31.50;16.77;;;5.40;18.80;;;;;;5182180;28;20091;-49
2023/12/13 06:16:26;;;;;;;29.83;17.17;;;5.30;11.40;;;;;;5178550;28;20064;-49
2023/12/13 06:18:59;;;;;;;29.05;17.67;;;5.30;28.80;;;;;;5190950;28;20037;-49
2023/12/13 06:21:33;;;;;;;32.08;18.17;;;5.30;23.90;;;;;;5197411;28;20040;-49
2023/12/13 06:24:04;;;;;;;27.50;16.00;;;5.40;23.20;;;;;;5196678;28;20049;-51
2023/12/13 06:26:38;;;;;;;28.10;16.40;;;5.40;35.10;;;;;;5198276;28;20325;-49
2023/12/13 06:29:13;;;;;;;35.50;17.52;;;5.50;40.10;;;;;;5192388;28;20052;-51
2023/12/13 06:31:47;;;;;;;24.45;16.40;;;5.50;39.60;;;;;;5183545;28;20030;-49
2023/12/13 06:34:18;;;;;;;25.02;15.18;;;5.60;39.70;;;;;;5198812;28;20029;-49
2023/12/13 06:36:50;;;;;;;24.73;15.93;;;5.50;37.60;;;;;;5198291;28;20037;-49
2023/12/13 06:39:25;;;;;;;24.20;15.57;;;5.60;37.80;;;;;;5198073;28;20029;-48
2023/12/13 06:41:58;;;;;;;25.95;15.88;;;5.60;44.30;;;;;;5198070;28;20626;-49
2023/12/13 06:44:32;;;;;;;27.45;16.98;;;5.70;43.20;;;;;;5180723;28;20355;-51
2023/12/13 06:47:05;;;;;;;31.45;16.50;;;5.60;29.90;;;;;;5189101;28;20029;-51
2023/12/13 06:49:36;;;;;;;25.85;15.68;;;5.70;30.80;;;;;;5181096;28;20211;-50
2023/12/13 06:52:07;;;;;;;26.38;15.38;;;5.70;29.50;;;;;;5182088;28;20025;-51
2023/12/13 06:54:44;;;;;;;30.27;16.38;;;5.60;16.80;;;;;;5186600;28;20033;-50
2023/12/13 06:57:19;;;;;;;23.98;14.65;;;5.60;19.60;;;;;;5176379;28;20222;-51
2023/12/13 06:59:51;;;;;;;23.20;14.68;;;5.50;13.40;;;;;;5197017;28;20026;-51
2023/12/13 07:02:23;;;;;;;25.52;15.18;;;5.50;14.90;;;;;;5193639;28;20253;-51
2023/12/13 07:04:54;;;;;;;23.92;15.98;;;5.40;16.30;;;;;;5201703;28;20045;-49
2023/12/13 07:07:30;;;;;;;25.38;16.27;;;5.40;9.50;;;;;;5194330;28;20045;-49
2023/12/13 07:10:02;;;;;;;27.73;15.93;;;5.40;22.00;;;;;;5197516;28;20034;-48
2023/12/13 07:12:33;;;;;;;25.75;15.50;;;5.30;16.30;;;;;;5184087;28;20030;-49
2023/12/13 07:15:10;;;;;;;27.27;15.82;;;5.40;27.20;;;;;;5191427;28;20033;-49
2023/12/13 07:17:44;;;;;;;21.92;14.38;;;5.40;20.30;;;;;;5208146;28;20030;-49
2023/12/13 07:20:20;;;;;;;30.83;16.67;;;5.40;26.70;;;;;;5190036;28;20033;-51
2023/12/13 07:22:51;;;;;;;26.95;16.52;;;5.50;37.00;;;;;;5184669;28;21489;-49
2023/12/13 07:25:23;;;;;;;27.02;15.73;;;5.50;38.20;;;;;;5190406;28;20352;-49
2023/12/13 07:27:57;;;;;;;28.08;16.58;;;5.60;43.00;;;;;;5188828;28;20329;-51
2023/12/13 07:30:28;;;;;;;26.75;16.73;;;5.60;44.10;;;;;;5177117;28;20562;-51
2023/12/13 07:32:59;;;;;;;26.17;15.65;;;5.70;51.90;;;;;;5186878;28;20038;-50
2023/12/13 07:35:37;;;;;;;28.48;15.55;;;5.60;35.80;;;;;;5194492;28;20048;-50
2023/12/13 07:38:14;;;;;;;25.25;15.63;;;5.70;44.90;;;;;;5197296;28;20021;-50
2023/12/13 07:40:47;;;;;;;25.65;15.13;;;5.80;52.90;;;;;;5195491;28;20026;-50
2023/12/13 07:43:19;;;;;;;26.88;16.75;;;5.90;56.80;;;;;;5197083;28;20048;-50
2023/12/13 07:45:52;;;;;;;31.83;16.77;;;5.90;51.00;;;;;;5193874;28;20025;-50
2023/12/13 07:48:24;;;;;;;35.85;18.13;;;5.90;37.10;;;;;;5181903;28;20237;-50
2023/12/13 07:50:59;;;;;;;32.63;17.30;;;5.90;39.00;;;;;;5188472;28;20336;-50
2023/12/13 07:53:32;;;;;;;31.88;18.52;;;5.80;11.30;;;;;;5195659;28;20222;-51
2023/12/13 07:56:06;;;;;;;29.33;18.17;;;5.80;11.60;;;;;;5197430;28;20059;-50
2023/12/13 07:58:37;;;;;;;31.92;18.70;;;5.80;18.80;;;;;;5196438;28;20270;-50
2023/12/13 08:01:09;;;;;;;31.20;18.48;;;6.00;23.90;;;;;;5175600;28;20044;-50
2023/12/13 08:03:40;;;;;;;30.02;18.17;;;6.10;27.00;;;;;;5196196;28;20091;-50
2023/12/13 08:06:18;;;;;;;27.02;17.13;;;6.10;1.30;;;;;;5159746;28;20047;-50
2023/12/13 08:08:51;;;;;;;27.92;17.42;;;6.10;1.00;;;;;;5194573;28;20236;-50
2023/12/13 08:11:24;;;;;;;34.72;18.80;;;6.10;1.00;;;;;;5195802;28;20194;-50
2023/12/13 08:13:56;;;;;;;31.10;18.27;;;6.10;1.00;;;;;;5195813;28;20034;-50
2023/12/13 08:16:34;;;;;;;31.10;17.98;;;6.10;1.00;;;;;;5174949;28;20045;-50
2023/12/13 08:19:05;;;;;;;32.38;17.45;;;6.10;1.00;;;;;;5189406;28;20022;-50
2023/12/13 08:21:40;;;;;;;25.83;15.88;;;6.20;1.00;;;;;;5197756;28;20348;-50
2023/12/13 08:24:12;;;;;;;30.50;18.27;;;6.30;1.00;;;;;;5195662;28;20029;-50
2023/12/13 08:26:43;;;;;;;27.55;16.80;;;6.30;2.30;;;;;;5193006;28;20037;-50
2023/12/13 08:29:17;;;;;;;27.27;17.02;;;6.20;1.00;;;;;;5178810;28;20224;-50
2023/12/13 08:31:52;;;;;;;26.98;16.67;;;6.30;1.00;;;;;;5191315;28;20013;-50
2023/12/13 08:34:24;;;;;;;24.67;16.25;;;6.40;6.40;;;;;;5190498;28;20029;-50
2023/12/13 08:36:55;;;;;;;20.92;14.65;;;6.40;1.90;;;;;;5186108;28;20479;-50
2023/12/13 08:39:27;;;;;;;22.25;14.38;;;6.40;3.20;;;;;;5178002;28;20041;-50
2023/12/13 08:41:58;;;;;;;26.92;16.67;;;6.30;1.00;;;;;;5187997;28;20025;-50
2023/12/13 08:44:32;;;;;;;30.08;16.25;;;6.40;1.00;;;;;;5195443;28;20276;-50
2023/12/13 08:47:06;;;;;;;22.90;15.85;;;6.30;1.00;;;;;;5191515;28;20025;-50
2023/12/13 08:49:37;;;;;;;28.17;15.65;;;6.40;1.00;;;;;;5195269;28;20029;-50
2023/12/13 08:52:10;;;;;;;25.33;16.27;;;6.40;1.00;;;;;;5181664;28;20026;-50
2023/12/13 08:54:41;;;;;;;27.27;15.88;;;6.60;1.00;;;;;;5192215;28;20033;-50
2023/12/13 08:57:16;;;;;;;27.73;15.48;;;6.50;1.00;;;;;;5195250;28;20478;-50
2023/12/13 08:59:47;;;;;;;28.50;15.95;;;6.60;1.00;;;;;;5194559;28;20325;-50
2023/12/13 09:02:21;;;;;;;29.17;16.60;;;6.50;1.00;;;;;;5191811;28;20037;-50
2023/12/13 09:04:57;;;;;;;36.55;17.20;;;6.70;1.00;;;;;;5195270;28;20318;-50
2023/12/13 09:07:34;;;;;;;37.45;16.58;;;6.80;1.00;;;;;;5195625;28;20317;-50
2023/12/13 09:10:08;;;;;;;22.38;12.65;;;6.90;1.00;;;;;;5185284;28;20033;-49
2023/12/13 09:12:39;;;;;;;4.80;3.20;;;7.00;1.00;;;;;;5188028;28;20264;-49
2023/12/13 09:15:13;;;;;;;1.52;1.42;;;7.70;1.00;;;;;;5192680;28;20037;-49
2023/12/13 09:17:50;;;;;;;;;;;8.30;1.00;;;;;;5177308;28;20271;-50
2023/12/13 09:20:21;;;;;;;1.23;1.08;;;8.60;1.00;;;;;;5194816;28;19909;-49
2023/12/13 09:22:56;;;;;;;1.65;1.30;;;8.90;1.00;;;;;;5179445;28;20048;-49
2023/12/13 09:25:27;;;;;;;;;;;9.10;99.90;;;;;;5194947;28;20201;-49
2023/12/13 09:28:01;;;;;;;3.67;1.60;;;9.20;1.00;;;;;;5205808;28;20216;-49
2023/12/13 09:30:32;;;;;;;1.85;1.75;;;9.40;1.00;;;;;;5191519;28;20033;-49
2023/12/13 09:33:04;;;;;;;2.25;1.52;;;9.50;1.00;;;;;;5195118;28;20056;-49
2023/12/13 09:35:35;;;;;;;2.35;1.50;;;9.60;99.90;;;;;;5194982;28;20384;-48
2023/12/13 09:38:06;;;;;;;2.40;1.65;;;9.60;99.90;;;;;;5188197;28;20033;-48
2023/12/13 09:40:38;;;;;;;2.45;1.40;;;9.70;99.90;;;;;;5210171;28;20191;-48
2023/12/13 09:43:10;;;;;;;2.22;1.35;;;9.70;99.90;;;;;;5195345;28;20021;-49
2023/12/13 09:45:43;;;;;;;3.40;1.80;;;9.80;99.90;;;;;;5191977;28;20029;-48
2023/12/13 09:48:21;;;;;;;1.35;1.23;;;9.80;99.90;;;;;;5185668;28;20221;-48
2023/12/13 09:50:54;;;;;;;2.67;1.65;;;9.90;99.90;;;;;;5179050;28;20029;-48
2023/12/13 09:53:29;;;;;;;3.15;2.05;;;9.90;99.90;;;;;;5207781;28;20484;-48
2023/12/13 09:56:01;;;;;;;1.50;1.30;;;10.00;94.70;;;;;;5192136;28;20024;-48
2023/12/13 09:58:33;;;;;;;5.00;2.25;;;10.00;11.90;;;;;;5194104;28;20373;-48
2023/12/13 10:01:12;;;;;;;4.18;3.05;;;10.10;1.00;;;;;;5192211;28;20344;-48
2023/12/13 10:03:44;;;;;;;1.88;1.40;;;10.10;1.00;;;;;;5193979;28;20123;-48
2023/12/13 10:06:15;;;;;;;8.02;4.82;;;10.10;1.00;;;;;;5208414;28;20344;-48
2023/12/13 10:09:03;;;;;;;2.60;1.67;;;10.10;1.00;;;;;;5184624;28;20033;-48
2023/12/13 10:11:37;;;;;;;2.22;1.65;;;10.10;1.00;;;;;;5176060;28;20383;-48
2023/12/13 10:14:14;;;;;;;2.97;2.42;;;10.20;1.00;;;;;;5195456;28;20056;-48
2023/12/13 10:16:45;;;;;;;1.92;1.65;;;10.30;1.00;;;;;;5189988;28;20489;-48
2023/12/13 10:19:19;;;;;;;2.30;2.10;;;10.20;1.00;;;;;;5186701;28;20289;-48
2023/12/13 10:21:51;;;;;;;2.23;2.03;;;10.20;1.00;;;;;;5199009;28;20329;-48
2023/12/13 10:24:23;;;;;;;2.42;2.15;;;10.20;1.00;;;;;;5194693;28;20261;-48
2023/12/13 10:26:57;;;;;;;1.70;1.60;;;10.20;1.00;;;;;;5188505;28;20033;-48
2023/12/13 10:29:30;;;;;;;1.30;1.20;;;10.20;1.00;;;;;;5204425;28;20244;-48
2023/12/13 10:32:02;;;;;;;1.98;1.75;;;10.20;1.00;;;;;;5172902;28;20040;-46
2023/12/13 10:34:37;;;;;;;1.95;1.80;;;10.20;1.00;;;;;;5209077;28;20036;-48
2023/12/13 10:37:10;;;;;;;1.20;1.20;;;10.30;1.00;;;;;;5180443;28;20017;-48
2023/12/13 10:39:44;;;;;;;2.40;1.60;;;10.30;1.00;;;;;;5193670;28;20458;-48
2023/12/13 10:42:17;;;;;;;;;;;10.30;1.00;;;;;;5199042;28;20245;-46
2023/12/13 10:44:52;;;;;;;2.10;1.50;;;10.30;1.00;;;;;;5198118;28;19908;-48
2023/12/13 10:47:26;;;;;;;8.90;6.28;;;10.40;1.00;;;;;;5191389;28;20041;-48
2023/12/13 10:49:58;;;;;;;6.37;4.37;;;10.30;1.00;;;;;;5179948;28;20036;-47
2023/12/13 10:52:32;;;;;;;14.20;9.30;;;10.10;1.00;;;;;;5184866;28;20278;-47
2023/12/13 10:55:05;;;;;;;17.80;10.82;;;9.90;1.00;;;;;;5185535;28;20194;-48
2023/12/13 10:57:38;;;;;;;13.75;9.30;;;9.50;1.00;;;;;;5197272;28;20033;-47
2023/12/13 11:00:11;;;;;;;13.90;9.07;;;8.90;1.00;;;;;;5193769;28;20040;-47
2023/12/13 11:02:52;;;;;;;14.85;9.38;;;8.80;92.60;;;;;;5195181;28;20599;-47
2023/12/13 11:05:26;;;;;;;14.07;8.43;;;8.90;99.90;;;;;;5188709;28;20135;-47
2023/12/13 11:07:58;;;;;;;13.82;10.23;;;8.80;99.90;;;;;;5196998;28;20029;-47
2023/12/13 11:10:29;;;;;;;15.35;9.55;;;8.90;1.00;;;;;;5197592;28;20062;-48
2023/12/13 11:13:01;;;;;;;13.07;9.10;;;8.90;1.00;;;;;;5202770;28;20029;-48
2023/12/13 11:15:44;;;;;;;13.57;9.05;;;8.90;1.00;;;;;;5175779;28;20037;-47
2023/12/13 11:18:16;;;;;;;15.10;8.60;;;8.90;1.00;;;;;;5198341;28;20029;-47
2023/12/13 11:20:52;;;;;;;13.90;9.30;;;8.80;1.00;;;;;;5196820;28;20273;-47
2023/12/13 11:23:27;;;;;;;13.15;9.20;;;8.80;14.80;;;;;;5199586;28;20058;-46
2023/12/13 11:25:58;;;;;;;15.35;9.77;;;8.80;92.60;;;;;;5194301;28;20040;-46
2023/12/13 11:28:38;;;;;;;14.30;9.68;;;8.80;99.90;;;;;;5197033;28;20029;-45
2023/12/13 11:31:10;;;;;;;13.57;8.88;;;8.90;99.90;;;;;;5194087;28;20029;-46
2023/12/13 11:33:43;;;;;;;16.88;9.20;;;8.90;99.90;;;;;;5196871;28;20059;-45
2023/12/13 11:36:20;;;;;;;16.80;9.93;;;9.00;99.90;;;;;;5197916;28;20043;-45
2023/12/13 11:38:57;;;;;;;16.38;10.40;;;9.00;99.90;;;;;;5179718;28;20360;-45
2023/12/13 11:41:31;;;;;;;14.25;9.98;;;8.80;99.90;;;;;;5178761;28;20324;-45
2023/12/13 11:44:03;;;;;;;14.57;10.05;;;8.90;99.90;;;;;;5184481;28;21108;-46
2023/12/13 11:46:37;;;;;;;15.88;9.80;;;9.00;99.90;;;;;;5175951;28;20230;-45
2023/12/13 11:49:08;;;;;;;18.45;9.73;;;9.20;71.80;;;;;;5191587;28;20033;-45
2023/12/13 11:51:39;;;;;;;11.68;8.43;;;9.20;99.90;;;;;;5199026;28;20294;-45
2023/12/13 11:54:11;;;;;;;12.80;8.93;;;9.20;1.00;;;;;;5182321;28;20436;-45
2023/12/13 11:56:43;;;;;;;14.98;9.15;;;9.20;1.00;;;;;;5191238;28;20215;-45
2023/12/13 11:59:20;;;;;;;23.30;10.43;;;9.20;1.00;;;;;;5210985;28;20029;-46
2023/12/13 12:01:54;;;;;;;15.10;10.50;;;9.10;1.00;;;;;;5193522;28;20043;-46
2023/12/13 12:04:28;;;;;;;16.17;9.57;;;9.10;76.00;;;;;;5181226;28;20037;-46
2023/12/13 12:07:02;;;;;;;14.10;8.05;;;9.10;29.90;;;;;;5191525;28;20044;-46
2023/12/13 12:09:35;;;;;;;13.68;8.85;;;9.20;94.40;;;;;;5196917;28;20240;-46
2023/12/13 12:12:09;;;;;;;14.55;8.77;;;9.20;1.00;;;;;;5195997;28;20203;-46
2023/12/13 12:14:44;;;;;;;15.18;9.32;;;9.20;50.10;;;;;;5176603;28;20117;-47
2023/12/13 12:17:19;;;;;;;16.52;10.18;;;9.20;99.90;;;;;;5186889;28;20037;-47
2023/12/13 12:19:51;;;;;;;12.88;8.23;;;9.20;1.00;;;;;;5210949;28;20029;-47
2023/12/13 12:22:22;;;;;;;14.20;9.15;;;9.10;38.30;;;;;;5194769;28;20037;-47
2023/12/13 12:24:54;;;;;;;13.65;9.20;;;9.10;99.90;;;;;;5195547;28;20040;-47
2023/12/13 12:27:26;;;;;;;16.23;9.63;;;9.20;99.90;;;;;;5193603;28;20043;-48
2023/12/13 12:29:57;;;;;;;19.30;10.32;;;9.20;99.90;;;;;;5208092;28;20033;-48
2023/12/13 12:32:32;;;;;;;16.27;10.20;;;9.30;99.90;;;;;;5192444;28;20369;-48
2023/12/13 12:35:05;;;;;;;17.60;10.38;;;9.40;99.90;;;;;;5191635;28;20029;-49
2023/12/13 12:37:36;;;;;;;17.27;10.07;;;9.40;1.00;;;;;;5177047;28;20371;-43
2023/12/13 12:40:10;;;;;;;15.35;10.63;;;9.50;99.90;;;;;;5197565;28;20037;-43
2023/12/13 12:42:42;;;;;;;15.75;10.20;;;9.40;99.90;;;;;;5192295;28;20040;-43
2023/12/13 12:45:17;;;;;;;18.17;10.95;;;9.50;99.90;;;;;;5187222;28;20207;-43
2023/12/13 12:47:50;;;;;;;17.13;11.23;;;9.50;99.90;;;;;;5194316;28;20025;-43
2023/12/13 12:50:27;;;;;;;;;;;9.50;99.90;;;;;;5194524;28;20033;-43
2023/12/13 12:53:05;;;;;;;19.38;11.73;;;9.60;99.90;;;;;;5175417;28;20359;-43
2023/12/13 12:55:36;;;;;;;19.38;11.75;;;9.50;99.90;;;;;;5193424;28;20033;-43
2023/12/13 12:58:08;;;;;;;18.10;11.15;;;9.40;1.00;;;;;;5192642;28;20332;-43
2023/12/13 13:00:40;;;;;;;25.83;14.50;;;9.30;70.70;;;;;;5205082;28;20041;-43
2023/12/13 13:03:11;;;;;;;24.65;13.85;;;9.30;99.90;;;;;;5196023;28;20040;-44
2023/12/13 13:05:45;;;;;;;18.08;11.60;;;9.30;99.90;;;;;;5200310;28;20025;-44
2023/12/13 13:08:16;;;;;;;21.10;13.27;;;9.40;99.90;;;;;;5194851;28;20021;-45
2023/12/13 13:10:49;;;;;;;20.60;12.60;;;9.50;99.90;;;;;;5179122;28;20272;-44
2023/12/13 13:13:25;;;;;;;21.83;11.77;;;9.60;1.00;;;;;;5195576;28;20268;-45
2023/12/13 13:15:57;;;;;;;17.83;11.32;;;9.50;1.00;;;;;;5190808;28;20225;-45
2023/12/13 13:18:32;;;;;;;15.77;11.18;;;9.30;99.90;;;;;;5216587;28;20202;-45